Time;durP1;ratioP1;P1;durP2;ratioP2;P2;SDS_P1;SDS_P2;PMS_P1;PMS_P2;Temp;Humidity;BMP_temperature;BMP_pressure;BME280_temperature;BME280_humidity;BME280_pressure;Samples;Min_cycle;Max_cycle;Signal;HPM_P1;HPM_P2
2022/08/01 00:01:30;;;;;;;11.40;10.25;;;;;;;;;;6181048;28;20431;-79
2022/08/01 00:04:31;;;;;;;12.17;10.10;;;;;;;;;;6179074;28;20054;-79
2022/08/01 00:07:31;;;;;;;11.43;10.20;;;;;;;;;;6182799;28;20034;-79
2022/08/01 00:10:32;;;;;;;13.97;10.53;;;;;;;;;;6212240;28;20027;-78
2022/08/01 00:13:32;;;;;;;12.40;10.90;;;;;;;;;;6193859;28;20207;-78
2022/08/01 00:16:32;;;;;;;13.07;10.33;;;;;;;;;;6226293;28;20049;-79
2022/08/01 00:19:33;;;;;;;11.30;9.65;;;;;;;;;;6187985;28;20379;-79
2022/08/01 00:22:33;;;;;;;12.90;9.83;;;;;;;;;;6190084;28;20050;-79
2022/08/01 00:25:34;;;;;;;12.73;11.07;;;;;;;;;;6218619;28;20027;-80
2022/08/01 00:28:34;;;;;;;11.27;10.07;;;;;;;;;;6176837;28;20038;-80
2022/08/01 00:31:34;;;;;;;13.10;10.40;;;;;;;;;;6193032;28;20015;-80
2022/08/01 00:34:34;;;;;;;13.67;10.27;;;;;;;;;;6202905;28;20038;-80
2022/08/01 00:37:34;;;;;;;10.40;9.00;;;;;;;;;;6214014;28;20023;-79
2022/08/01 00:40:35;;;;;;;10.93;9.10;;;;;;;;;;6214211;28;20065;-79
2022/08/01 00:43:35;;;;;;;13.27;10.47;;;;;;;;;;6219620;28;20042;-80
2022/08/01 00:46:35;;;;;;;12.17;10.00;;;;;;;;;;6188991;28;20025;-79
2022/08/01 00:49:35;;;;;;;12.07;10.63;;;;;;;;;;6200439;28;20026;-79
2022/08/01 00:52:36;;;;;;;11.57;10.38;;;;;;;;;;6196868;28;20030;-80
2022/08/01 00:55:36;;;;;;;11.93;10.50;;;;;;;;;;6184220;28;20054;-80
2022/08/01 00:58:37;;;;;;;12.70;11.03;;;;;;;;;;6199682;28;20030;-79
2022/08/01 01:01:37;;;;;;;11.93;10.45;;;;;;;;;;6187280;28;20019;-79
2022/08/01 01:04:37;;;;;;;13.05;9.90;;;;;;;;;;6193685;28;20077;-79
2022/08/01 01:07:42;;;;;;;12.15;9.63;;;;;;;;;;6189401;28;20141;-80
2022/08/01 01:10:45;;;;;;;11.35;9.52;;;;;;;;;;6188835;28;20157;-79
2022/08/01 01:13:48;;;;;;;13.40;10.27;;;;;;;;;;6199846;28;20074;-79
2022/08/01 01:16:49;;;;;;;11.05;8.32;;;;;;;;;;6201968;28;20022;-79
2022/08/01 01:19:54;;;;;;;10.38;8.30;;;;;;;;;;6201508;28;20386;-79
2022/08/01 01:23:10;;;;;;;9.00;8.10;;;;;;;;;;6231958;28;20053;-79
2022/08/01 01:26:10;;;;;;;9.90;7.82;;;;;;;;;;6216129;28;20074;-79
2022/08/01 01:29:20;;;;;;;8.37;7.57;;;;;;;;;;6205846;28;20489;-80
2022/08/01 01:32:33;;;;;;;9.57;8.00;;;;;;;;;;6192640;28;20289;-79
2022/08/01 01:35:35;;;;;;;9.68;7.70;;;;;;;;;;6185277;28;20247;-79
2022/08/01 01:38:44;;;;;;;10.65;8.43;;;;;;;;;;6214831;28;20030;-79
2022/08/01 01:41:45;;;;;;;10.52;8.18;;;;;;;;;;6190531;28;20121;-79
2022/08/01 01:44:45;;;;;;;10.97;7.67;;;;;;;;;;6193406;28;20117;-79
2022/08/01 01:47:46;;;;;;;10.80;7.53;;;;;;;;;;6194584;28;20505;-79
2022/08/01 01:50:47;;;;;;;9.57;8.47;;;;;;;;;;6233306;28;20054;-79
2022/08/01 01:53:47;;;;;;;11.63;9.07;;;;;;;;;;6201339;28;20037;-80
2022/08/01 01:56:49;;;;;;;11.63;9.47;;;;;;;;;;6193518;28;20058;-79
2022/08/01 01:59:50;;;;;;;15.15;9.80;;;;;;;;;;6214155;28;20022;-79
2022/08/01 02:02:52;;;;;;;12.00;9.77;;;;;;;;;;6179174;28;20046;-79
2022/08/01 02:05:52;;;;;;;;;;;;;;;;;;6192228;28;20026;-79
2022/08/01 02:08:53;;;;;;;19.05;9.88;;;;;;;;;;6183339;28;19906;-79
2022/08/01 02:11:54;;;;;;;11.90;9.70;;;;;;;;;;6186143;28;20240;-80
2022/08/01 02:14:55;;;;;;;14.02;10.93;;;;;;;;;;6199841;28;20310;-79
2022/08/01 02:17:56;;;;;;;15.30;11.40;;;;;;;;;;6188001;28;20077;-79
2022/08/01 02:20:57;;;;;;;14.50;10.27;;;;;;;;;;6208537;28;20015;-80
2022/08/01 02:24:01;;;;;;;16.83;12.25;;;;;;;;;;6194154;28;20470;-79
2022/08/01 02:27:04;;;;;;;11.63;9.05;;;;;;;;;;6182129;28;20044;-79
2022/08/01 02:30:05;;;;;;;16.92;12.13;;;;;;;;;;6183352;28;20034;-79
2022/08/01 02:33:09;;;;;;;14.03;10.57;;;;;;;;;;6196356;28;20060;-79
2022/08/01 02:36:11;;;;;;;13.13;10.32;;;;;;;;;;6181161;28;20037;-79
2022/08/01 02:39:13;;;;;;;13.02;9.32;;;;;;;;;;6190855;28;20018;-80
2022/08/01 02:42:13;;;;;;;;;;;;;;;;;;6199475;28;20018;-79
2022/08/01 02:45:13;;;;;;;12.07;9.68;;;;;;;;;;6228146;28;19917;-79
2022/08/01 02:48:15;;;;;;;14.85;9.80;;;;;;;;;;6178513;28;20462;-79
2022/08/01 02:51:15;;;;;;;12.32;9.85;;;;;;;;;;6190963;28;20101;-80
2022/08/01 02:54:17;;;;;;;14.00;9.23;;;;;;;;;;6203271;28;20019;-79
2022/08/01 02:57:18;;;;;;;12.30;9.88;;;;;;;;;;6192337;28;20100;-79
2022/08/01 03:00:18;;;;;;;11.40;9.43;;;;;;;;;;6204600;28;20022;-79
2022/08/01 03:03:19;;;;;;;11.25;8.82;;;;;;;;;;6179528;28;20038;-80
2022/08/01 03:06:19;;;;;;;12.77;10.05;;;;;;;;;;6204817;28;20483;-80
2022/08/01 03:09:21;;;;;;;13.70;9.50;;;;;;;;;;6175240;28;20049;-80
2022/08/01 03:12:24;;;;;;;8.40;7.10;;;;;;;;;;6193538;28;20018;-80
2022/08/01 03:15:26;;;;;;;12.18;8.98;;;;;;;;;;6175331;28;20086;-80
2022/08/01 03:18:27;;;;;;;11.57;9.88;;;;;;;;;;6180381;28;20479;-80
2022/08/01 03:21:27;;;;;;;14.85;9.65;;;;;;;;;;6187381;28;20027;-80
2022/08/01 03:24:28;;;;;;;11.40;7.82;;;;;;;;;;6183961;28;20026;-80
2022/08/01 03:27:29;;;;;;;13.02;9.98;;;;;;;;;;6223884;28;20030;-80
2022/08/01 03:30:30;;;;;;;12.35;8.73;;;;;;;;;;6192777;28;20119;-80
2022/08/01 03:33:30;;;;;;;11.57;9.48;;;;;;;;;;6188896;28;20037;-79
2022/08/01 03:36:31;;;;;;;12.47;8.77;;;;;;;;;;6202809;28;20392;-79
2022/08/01 03:39:34;;;;;;;13.53;10.03;;;;;;;;;;6195143;28;20026;-79
2022/08/01 03:42:41;;;;;;;13.25;9.35;;;;;;;;;;6180053;28;20615;-80
2022/08/01 03:45:45;;;;;;;11.80;9.73;;;;;;;;;;6192301;28;20064;-80
2022/08/01 03:48:48;;;;;;;13.00;8.82;;;;;;;;;;6195909;28;20360;-79
2022/08/01 03:51:49;;;;;;;10.88;9.73;;;;;;;;;;6188404;28;20050;-79
2022/08/01 03:54:51;;;;;;;11.87;10.13;;;;;;;;;;6199482;28;20098;-79
2022/08/01 03:57:52;;;;;;;12.35;9.45;;;;;;;;;;6179839;28;20352;-80
2022/08/01 04:00:52;;;;;;;11.52;8.85;;;;;;;;;;6190277;28;20394;-79
2022/08/01 04:03:53;;;;;;;11.88;9.80;;;;;;;;;;6194377;28;20154;-80
2022/08/01 04:06:54;;;;;;;11.90;8.43;;;;;;;;;;6193538;28;20395;-80
2022/08/01 04:09:54;;;;;;;13.02;10.45;;;;;;;;;;6192624;28;20469;-80
2022/08/01 04:12:55;;;;;;;14.38;11.25;;;;;;;;;;6184478;28;20034;-79
2022/08/01 04:15:55;;;;;;;15.60;11.97;;;;;;;;;;6188856;28;20387;-79
2022/08/01 04:18:55;;;;;;;14.97;13.17;;;;;;;;;;6195572;28;20086;-79
2022/08/01 04:21:56;;;;;;;14.68;11.40;;;;;;;;;;6221335;28;20641;-79
2022/08/01 04:24:58;;;;;;;16.48;13.43;;;;;;;;;;6192292;28;20466;-79
2022/08/01 04:28:00;;;;;;;16.05;13.60;;;;;;;;;;6191855;28;20022;-79
2022/08/01 04:31:00;;;;;;;16.50;11.98;;;;;;;;;;6209724;28;20469;-80
2022/08/01 04:34:01;;;;;;;15.77;12.55;;;;;;;;;;6201904;28;20025;-79
2022/08/01 04:37:02;;;;;;;16.08;13.43;;;;;;;;;;6225385;28;20431;-79
2022/08/01 04:40:04;;;;;;;18.00;13.67;;;;;;;;;;6199219;28;20010;-79
2022/08/01 04:43:05;;;;;;;15.20;11.93;;;;;;;;;;6198480;28;20386;-79
2022/08/01 04:46:06;;;;;;;19.87;13.03;;;;;;;;;;6202505;28;20018;-79
2022/08/01 04:49:08;;;;;;;20.10;12.57;;;;;;;;;;6190073;28;20039;-79
2022/08/01 04:52:09;;;;;;;;;;;;;;;;;;6197702;28;20025;-79
2022/08/01 04:55:10;;;;;;;17.40;14.43;;;;;;;;;;6226568;28;19926;-79
2022/08/01 04:58:10;;;;;;;16.63;13.60;;;;;;;;;;6184218;28;20022;-79
2022/08/01 05:01:11;;;;;;;17.77;13.85;;;;;;;;;;6194421;28;20053;-79
2022/08/01 05:04:11;;;;;;;16.77;13.70;;;;;;;;;;6202956;28;20534;-79
2022/08/01 05:07:12;;;;;;;18.67;15.17;;;;;;;;;;6202824;28;20397;-79
2022/08/01 05:10:12;;;;;;;19.45;15.10;;;;;;;;;;6187646;28;20526;-79
2022/08/01 05:13:13;;;;;;;17.70;14.50;;;;;;;;;;6187451;28;20026;-78
2022/08/01 05:16:13;;;;;;;16.40;13.90;;;;;;;;;;6187190;28;20023;-77
2022/08/01 05:19:13;;;;;;;17.03;14.67;;;;;;;;;;6218207;28;20446;-77
2022/08/01 05:22:13;;;;;;;18.33;15.70;;;;;;;;;;6208140;28;20049;-77
2022/08/01 05:25:14;;;;;;;21.90;17.87;;;;;;;;;;6175619;28;20553;-77
2022/08/01 05:28:15;;;;;;;19.17;16.30;;;;;;;;;;6190157;28;20019;-77
2022/08/01 05:31:15;;;;;;;30.10;20.30;;;;;;;;;;6177060;28;20018;-77
2022/08/01 05:34:15;;;;;;;22.13;17.60;;;;;;;;;;6175992;28;20379;-77
2022/08/01 05:37:15;;;;;;;23.90;19.20;;;;;;;;;;6187443;28;20027;-77
2022/08/01 05:40:16;;;;;;;26.87;21.47;;;;;;;;;;6182523;28;20019;-78
2022/08/01 05:43:16;;;;;;;25.33;21.07;;;;;;;;;;6185090;28;20011;-76
2022/08/01 05:46:16;;;;;;;26.10;21.77;;;;;;;;;;6215017;28;20029;-76
2022/08/01 05:49:16;;;;;;;30.87;23.67;;;;;;;;;;6223219;28;20018;-76
2022/08/01 05:52:16;;;;;;;27.13;21.38;;;;;;;;;;6187988;28;20044;-76
2022/08/01 05:55:17;;;;;;;28.07;20.93;;;;;;;;;;6195328;28;20069;-77
2022/08/01 05:58:17;;;;;;;27.08;20.88;;;;;;;;;;6192489;28;20739;-77
2022/08/01 06:01:17;;;;;;;31.00;22.33;;;;;;;;;;6201770;28;20042;-77
2022/08/01 06:04:17;;;;;;;28.93;22.47;;;;;;;;;;6187275;28;20027;-77
2022/08/01 06:07:18;;;;;;;31.40;23.75;;;;;;;;;;6186849;28;20044;-77
2022/08/01 06:10:18;;;;;;;38.60;29.33;;;;;;;;;;6190632;28;20022;-77
2022/08/01 06:13:19;;;;;;;33.03;25.90;;;;;;;;;;6187128;28;20053;-77
2022/08/01 06:16:19;;;;;;;46.80;34.88;;;;;;;;;;6195074;28;20015;-77
2022/08/01 06:19:19;;;;;;;41.27;31.87;;;;;;;;;;6208629;28;20033;-77
2022/08/01 06:22:20;;;;;;;54.80;43.53;;;;;;;;;;6182460;28;20528;-78
2022/08/01 06:25:20;;;;;;;57.43;42.40;;;;;;;;;;6193501;28;20137;-77
2022/08/01 06:28:21;;;;;;;51.60;41.63;;;;;;;;;;6195765;28;20500;-77
2022/08/01 06:31:21;;;;;;;43.57;35.47;;;;;;;;;;6188553;28;20064;-77
2022/08/01 06:34:22;;;;;;;36.47;32.40;;;;;;;;;;6185749;28;20019;-77
2022/08/01 06:37:22;;;;;;;32.63;26.50;;;;;;;;;;6195776;28;20022;-75
2022/08/01 06:40:23;;;;;;;29.65;23.75;;;;;;;;;;6182579;28;20019;-75
2022/08/01 06:43:23;;;;;;;26.73;20.03;;;;;;;;;;6187938;28;20023;-75
2022/08/01 06:46:23;;;;;;;26.47;21.23;;;;;;;;;;6199910;28;20469;-74
2022/08/01 06:49:24;;;;;;;22.87;19.23;;;;;;;;;;6204099;28;20026;-75
2022/08/01 06:52:25;;;;;;;23.52;18.75;;;;;;;;;;6190652;28;20543;-75
2022/08/01 06:55:25;;;;;;;23.98;19.05;;;;;;;;;;6191777;28;20065;-75
2022/08/01 06:58:25;;;;;;;23.80;18.50;;;;;;;;;;6182681;28;20023;-75
2022/08/01 07:01:26;;;;;;;20.53;16.03;;;;;;;;;;6222516;28;20030;-74
2022/08/01 07:04:26;;;;;;;18.90;13.57;;;;;;;;;;6223624;28;20439;-75
2022/08/01 07:07:27;;;;;;;15.60;10.98;;;;;;;;;;6200259;28;20081;-75
2022/08/01 07:10:27;;;;;;;;;;;;;;;;;;6183337;28;20037;-74
2022/08/01 07:13:27;;;;;;;13.52;10.07;;;;;;;;;;6186501;28;19921;-75
2022/08/01 07:16:28;;;;;;;;;;;;;;;;;;6184686;28;20531;-75
2022/08/01 07:19:28;;;;;;;7.80;5.65;;;;;;;;;;6181876;28;19957;-75
2022/08/01 07:22:28;;;;;;;8.97;6.13;;;;;;;;;;6188498;28;20019;-76
2022/08/01 07:25:28;;;;;;;8.63;5.27;;;;;;;;;;6183124;28;20102;-76
2022/08/01 07:28:29;;;;;;;8.73;5.90;;;;;;;;;;6192842;28;20027;-76
2022/08/01 07:31:29;;;;;;;9.10;5.28;;;;;;;;;;6209742;28;20026;-76
2022/08/01 07:34:29;;;;;;;7.97;5.07;;;;;;;;;;6205044;28;20487;-76
2022/08/01 07:37:30;;;;;;;12.63;6.10;;;;;;;;;;6183961;28;20027;-76
2022/08/01 07:40:30;;;;;;;8.73;5.40;;;;;;;;;;6191826;28;20019;-78
2022/08/01 07:43:30;;;;;;;8.50;5.20;;;;;;;;;;6200459;28;20031;-77
2022/08/01 07:46:30;;;;;;;10.40;4.67;;;;;;;;;;6190671;28;20038;-77
2022/08/01 07:49:31;;;;;;;11.43;5.17;;;;;;;;;;6202138;28;20018;-76
2022/08/01 07:52:31;;;;;;;8.02;4.50;;;;;;;;;;6193542;28;20030;-76
2022/08/01 07:55:31;;;;;;;10.27;4.97;;;;;;;;;;6185730;28;20047;-77
2022/08/01 07:58:32;;;;;;;8.20;3.93;;;;;;;;;;6196068;28;20106;-76
2022/08/01 08:01:32;;;;;;;9.55;3.75;;;;;;;;;;6186167;28;20382;-76
2022/08/01 08:04:33;;;;;;;7.07;3.17;;;;;;;;;;6189422;28;20015;-77
2022/08/01 08:07:33;;;;;;;11.18;3.40;;;;;;;;;;6187158;28;20019;-76
2022/08/01 08:10:34;;;;;;;5.30;3.17;;;;;;;;;;6185061;28;20203;-76
2022/08/01 08:13:34;;;;;;;6.47;4.43;;;;;;;;;;6186074;28;20033;-77
2022/08/01 08:16:34;;;;;;;8.13;3.10;;;;;;;;;;6187852;28;20042;-77
2022/08/01 08:19:36;;;;;;;6.10;3.33;;;;;;;;;;6186072;28;20026;-77
2022/08/01 08:22:37;;;;;;;9.95;3.17;;;;;;;;;;6220039;28;20446;-77
2022/08/01 08:25:37;;;;;;;7.90;2.35;;;;;;;;;;6201476;28;20053;-77
2022/08/01 08:28:38;;;;;;;7.45;2.72;;;;;;;;;;6210132;28;20033;-77
2022/08/01 08:31:38;;;;;;;4.78;2.63;;;;;;;;;;6181170;28;20037;-76
2022/08/01 08:34:38;;;;;;;4.43;2.40;;;;;;;;;;6186595;28;20011;-77
2022/08/01 08:37:38;;;;;;;8.07;2.57;;;;;;;;;;6184051;28;20302;-76
2022/08/01 08:40:39;;;;;;;5.17;2.50;;;;;;;;;;6199002;28;20011;-77
2022/08/01 08:43:39;;;;;;;7.85;2.72;;;;;;;;;;6176367;28;20332;-76
2022/08/01 08:46:50;;;;;;;4.77;2.13;;;;;;;;;;6189216;28;20038;-77
2022/08/01 08:49:52;;;;;;;8.85;2.53;;;;;;;;;;6199714;28;20304;-77
2022/08/01 08:52:54;;;;;;;6.18;2.63;;;;;;;;;;6217372;28;20654;-77
2022/08/01 08:55:56;;;;;;;4.35;2.40;;;;;;;;;;6184802;28;20061;-77
2022/08/01 08:58:57;;;;;;;4.28;2.10;;;;;;;;;;6175752;28;20022;-77
2022/08/01 09:01:57;;;;;;;5.43;2.63;;;;;;;;;;6185277;28;20023;-77
2022/08/01 09:04:58;;;;;;;5.68;2.80;;;;;;;;;;6203273;28;20022;-77
2022/08/01 09:07:58;;;;;;;3.65;2.60;;;;;;;;;;6188119;28;20026;-78
2022/08/01 09:10:58;;;;;;;6.60;2.55;;;;;;;;;;6223340;28;20022;-78
2022/08/01 09:14:03;;;;;;;5.67;1.97;;;;;;;;;;6202016;28;20073;-77
2022/08/01 09:17:08;;;;;;;3.00;2.20;;;;;;;;;;6192027;28;20022;-77
2022/08/01 09:20:21;;;;;;;6.28;2.03;;;;;;;;;;6193641;28;20084;-77
2022/08/01 09:23:42;;;;;;;9.45;2.58;;;;;;;;;;6190961;28;20041;-77
2022/08/01 09:26:42;;;;;;;3.40;2.20;;;;;;;;;;6191564;28;20045;-77
2022/08/01 09:29:44;;;;;;;5.80;2.20;;;;;;;;;;6195818;28;20491;-77
2022/08/01 09:32:57;;;;;;;3.28;2.00;;;;;;;;;;6206670;28;20029;-77
2022/08/01 09:35:58;;;;;;;6.40;2.35;;;;;;;;;;6205115;28;20578;-78
2022/08/01 09:39:11;;;;;;;6.13;2.10;;;;;;;;;;6209272;28;20014;-77
2022/08/01 09:42:24;;;;;;;6.30;2.45;;;;;;;;;;6212664;28;20010;-77
2022/08/01 09:45:31;;;;;;;3.45;2.20;;;;;;;;;;6196055;28;20037;-77
2022/08/01 09:48:32;;;;;;;5.32;2.35;;;;;;;;;;6203110;28;20018;-78
2022/08/01 09:51:33;;;;;;;;;;;;;;;;;;6199142;28;20395;-77
2022/08/01 09:54:33;;;;;;;4.70;2.53;;;;;;;;;;6228655;28;19921;-77
2022/08/01 09:57:33;;;;;;;;;;;;;;;;;;6196612;28;20025;-77
2022/08/01 10:00:34;;;;;;;4.57;2.27;;;;;;;;;;6190212;28;20350;-78
2022/08/01 10:03:35;;;;;;;6.00;2.97;;;;;;;;;;6187744;28;20030;-77
2022/08/01 10:06:35;;;;;;;;;;;;;;;;;;6186159;28;20050;-77
2022/08/01 10:09:36;;;;;;;4.75;2.78;;;;;;;;;;6190886;28;19989;-77
2022/08/01 10:12:37;;;;;;;4.72;3.25;;;;;;;;;;6185535;28;20026;-77
2022/08/01 10:15:37;;;;;;;;;;;;;;;;;;6185585;28;20073;-77
2022/08/01 10:18:40;;;;;;;8.02;3.20;;;;;;;;;;6217964;28;19912;-77
2022/08/01 10:21:41;;;;;;;4.53;2.53;;;;;;;;;;6205699;28;20481;-77
2022/08/01 10:24:42;;;;;;;6.43;2.33;;;;;;;;;;6190632;28;20370;-77
2022/08/01 10:27:45;;;;;;;4.03;2.58;;;;;;;;;;6202197;28;20118;-77
2022/08/01 10:30:45;;;;;;;9.15;2.92;;;;;;;;;;6186492;28;20113;-77
2022/08/01 10:33:46;;;;;;;7.75;3.08;;;;;;;;;;6205352;28;20014;-77
2022/08/01 10:36:46;;;;;;;;;;;;;;;;;;6177180;28;20026;-78
2022/08/01 10:39:46;;;;;;;8.10;2.75;;;;;;;;;;6190596;28;19953;-78
2022/08/01 10:42:46;;;;;;;3.60;2.57;;;;;;;;;;6186124;28;20018;-77
2022/08/01 10:45:47;;;;;;;;;;;;;;;;;;6213823;28;20454;-78
2022/08/01 10:49:02;;;;;;;4.60;3.75;;;;;;;;;;6192190;28;20297;-78
2022/08/01 10:52:03;;;;;;;5.57;3.40;;;;;;;;;;6192154;28;20026;-78
2022/08/01 10:55:04;;;;;;;6.97;3.63;;;;;;;;;;6194387;28;20065;-77
2022/08/01 10:58:07;;;;;;;7.93;3.47;;;;;;;;;;6186676;28;20028;-77
2022/08/01 11:01:17;;;;;;;5.97;3.78;;;;;;;;;;6199879;28;20109;-79
2022/08/01 11:04:17;;;;;;;4.88;2.90;;;;;;;;;;6184303;28;20019;-78
2022/08/01 11:07:20;;;;;;;;;;;;;;;;;;6222726;28;20640;-77
2022/08/01 11:10:39;;;;;;;7.50;3.05;;;;;;;;;;6218797;28;20402;-78
2022/08/01 11:13:58;;;;;;;4.55;3.50;;;;;;;;;;6217828;28;20083;-78
2022/08/01 11:17:17;;;;;;;13.63;3.08;;;;;;;;;;6220148;28;20474;-77
2022/08/01 11:20:18;;;;;;;7.72;5.50;;;;;;;;;;6192939;28;20530;-78
2022/08/01 11:23:19;;;;;;;7.32;4.05;;;;;;;;;;6184491;28;20029;-78
2022/08/01 11:26:19;;;;;;;;;;;;;;;;;;6188698;28;20027;-78
2022/08/01 11:29:19;;;;;;;6.65;4.00;;;;;;;;;;6188104;28;19910;-78
2022/08/01 11:32:19;;;;;;;;;;;;;;;;;;6192091;28;20125;-78
2022/08/01 11:35:26;;;;;;;7.68;4.00;;;;;;;;;;6187061;28;19913;-78
2022/08/01 11:38:28;;;;;;;8.05;4.45;;;;;;;;;;6194137;28;20034;-78
2022/08/01 11:41:32;;;;;;;7.22;4.47;;;;;;;;;;6182346;28;20510;-78
2022/08/01 11:44:47;;;;;;;9.35;4.20;;;;;;;;;;6179231;28;20042;-78
2022/08/01 11:47:48;;;;;;;8.10;4.22;;;;;;;;;;6191390;28;20026;-78
2022/08/01 11:50:52;;;;;;;9.27;3.78;;;;;;;;;;6204206;28;20132;-79
2022/08/01 11:53:52;;;;;;;6.43;4.05;;;;;;;;;;6221923;28;20104;-79
2022/08/01 11:56:53;;;;;;;;;;;;;;;;;;6224557;28;20502;-78
2022/08/01 11:59:55;;;;;;;12.20;4.68;;;;;;;;;;6221762;28;19910;-79
2022/08/01 12:02:58;;;;;;;7.50;4.13;;;;;;;;;;6189609;28;20774;-79
2022/08/01 12:05:58;;;;;;;7.80;4.57;;;;;;;;;;6218388;28;20033;-78
2022/08/01 12:08:59;;;;;;;;;;;;;;;;;;6218495;28;20355;-79
2022/08/01 12:11:59;;;;;;;6.70;4.00;;;;;;;;;;6219498;28;19913;-78
2022/08/01 12:15:00;;;;;;;7.00;5.00;;;;;;;;;;6182349;28;20027;-79
2022/08/01 12:18:02;;;;;;;7.97;4.70;;;;;;;;;;6179391;28;20023;-79
2022/08/01 12:21:04;;;;;;;7.40;4.15;;;;;;;;;;6198289;28;20049;-79
2022/08/01 12:24:04;;;;;;;9.27;4.50;;;;;;;;;;6187597;28;20023;-79
2022/08/01 12:27:05;;;;;;;;;;;;;;;;;;6203487;28;20142;-80
2022/08/01 12:30:15;;;;;;;8.85;5.22;;;;;;;;;;6186769;28;20290;-79
2022/08/01 12:33:19;;;;;;;6.25;3.75;;;;;;;;;;6183862;28;20053;-79
2022/08/01 12:36:29;;;;;;;7.13;4.38;;;;;;;;;;6192014;28;20864;-80
2022/08/01 12:39:31;;;;;;;6.35;3.58;;;;;;;;;;6193376;28;20022;-78
2022/08/01 12:42:36;;;;;;;6.32;3.75;;;;;;;;;;6189779;28;20023;-78
2022/08/01 12:45:42;;;;;;;10.13;4.50;;;;;;;;;;6208638;28;20038;-78
2022/08/01 12:48:42;;;;;;;4.38;3.08;;;;;;;;;;6192976;28;20364;-79
2022/08/01 12:51:43;;;;;;;4.55;3.38;;;;;;;;;;6188300;28;20022;-79
2022/08/01 12:55:02;;;;;;;6.70;3.50;;;;;;;;;;6228527;28;20042;-78
2022/08/01 12:58:09;;;;;;;6.57;2.88;;;;;;;;;;6197718;28;20025;-79
2022/08/01 13:01:11;;;;;;;6.07;3.03;;;;;;;;;;6205466;28;20014;-78
2022/08/01 13:04:11;;;;;;;7.13;3.38;;;;;;;;;;6190453;28;20015;-78
2022/08/01 13:07:11;;;;;;;8.33;3.83;;;;;;;;;;6187107;28;20513;-78
2022/08/01 13:10:12;;;;;;;8.57;3.10;;;;;;;;;;6192560;28;20250;-79
2022/08/01 13:13:14;;;;;;;5.20;3.40;;;;;;;;;;6183991;28;20027;-79
2022/08/01 13:16:17;;;;;;;5.95;3.35;;;;;;;;;;6186066;28;20022;-79
2022/08/01 13:19:17;;;;;;;7.75;3.55;;;;;;;;;;6192011;28;20102;-79
2022/08/01 13:22:17;;;;;;;6.07;3.37;;;;;;;;;;6222703;28;20022;-79
2022/08/01 13:25:18;;;;;;;5.47;3.50;;;;;;;;;;6189547;28;20037;-80
2022/08/01 13:28:19;;;;;;;6.03;4.20;;;;;;;;;;6188932;28;20026;-79
2022/08/01 13:31:31;;;;;;;4.95;3.53;;;;;;;;;;6209977;28;20113;-80
2022/08/01 13:34:32;;;;;;;9.18;3.53;;;;;;;;;;6220706;28;20015;-80
2022/08/01 13:37:33;;;;;;;6.30;2.95;;;;;;;;;;6182081;28;20019;-80
2022/08/01 13:40:33;;;;;;;5.37;3.03;;;;;;;;;;6187878;28;20022;-79
2022/08/01 13:43:34;;;;;;;7.07;2.93;;;;;;;;;;6191944;28;20025;-79
2022/08/01 13:46:35;;;;;;;6.28;3.15;;;;;;;;;;6186410;28;20867;-80
2022/08/01 13:49:36;;;;;;;4.68;2.97;;;;;;;;;;6182790;28;20446;-80
2022/08/01 13:52:36;;;;;;;4.43;3.10;;;;;;;;;;6198060;28;20033;-79
2022/08/01 13:55:36;;;;;;;3.97;2.70;;;;;;;;;;6192621;28;20573;-80
2022/08/01 13:58:36;;;;;;;4.15;3.13;;;;;;;;;;6180470;28;20445;-79
2022/08/01 14:01:37;;;;;;;6.57;3.23;;;;;;;;;;6196770;28;20097;-79
2022/08/01 14:04:37;;;;;;;7.67;3.00;;;;;;;;;;6189617;28;20018;-79
2022/08/01 14:07:37;;;;;;;4.70;2.90;;;;;;;;;;6178944;28;20030;-79
2022/08/01 14:10:38;;;;;;;7.07;2.93;;;;;;;;;;6194122;28;20030;-79
2022/08/01 14:13:38;;;;;;;3.10;2.25;;;;;;;;;;6186583;28;20015;-79
2022/08/01 14:16:39;;;;;;;3.28;2.30;;;;;;;;;;6186251;28;20047;-80
2022/08/01 14:19:39;;;;;;;3.03;2.67;;;;;;;;;;6184010;28;20046;-80
2022/08/01 14:22:40;;;;;;;6.67;2.57;;;;;;;;;;6224454;28;20017;-81
2022/08/01 14:25:41;;;;;;;5.53;2.85;;;;;;;;;;6193472;28;20396;-80
2022/08/01 14:28:41;;;;;;;4.28;2.70;;;;;;;;;;6185858;28;20105;-80
2022/08/01 14:31:41;;;;;;;7.23;3.60;;;;;;;;;;6198665;28;20474;-80
2022/08/01 14:34:41;;;;;;;3.60;2.23;;;;;;;;;;6194374;28;20030;-81
2022/08/01 14:37:41;;;;;;;5.90;2.90;;;;;;;;;;6228724;28;20113;-81
2022/08/01 14:40:42;;;;;;;4.13;2.80;;;;;;;;;;6204045;28;20018;-80
2022/08/01 14:43:42;;;;;;;6.10;2.80;;;;;;;;;;6185236;28;20026;-80
2022/08/01 14:46:44;;;;;;;4.90;2.70;;;;;;;;;;6188374;28;20015;-80
2022/08/01 14:49:44;;;;;;;3.33;2.90;;;;;;;;;;6189835;28;20356;-80
2022/08/01 14:52:44;;;;;;;6.07;3.27;;;;;;;;;;6192804;28;20042;-80
2022/08/01 14:55:44;;;;;;;8.80;4.07;;;;;;;;;;6221479;28;20454;-80
2022/08/01 14:58:44;;;;;;;8.67;3.57;;;;;;;;;;6187472;28;20017;-81
2022/08/01 15:01:45;;;;;;;5.80;3.43;;;;;;;;;;6209481;28;20022;-81
2022/08/01 15:04:46;;;;;;;6.63;3.67;;;;;;;;;;6216639;28;20027;-81
2022/08/01 15:07:46;;;;;;;6.80;3.95;;;;;;;;;;6198349;28;20018;-80
2022/08/01 15:10:46;;;;;;;;;;;;;;;;;;6187418;28;20022;-80
2022/08/01 15:14:47;;;;;;;6.25;3.40;;;;;;;;;;6218026;28;20404;-80
2022/08/01 15:17:07;;;;;;;9.38;4.32;;;;;;;;;;6188229;28;20519;-80
2022/08/01 15:20:07;;;;;;;;;;;;;;;;;;6191973;28;20023;-80
2022/08/01 15:23:07;;;;;;;9.02;4.07;;;;;;;;;;6219745;28;19907;-82
2022/08/01 15:26:13;;;;;;;5.13;4.33;;;;;;;;;;6182374;28;20593;-80
2022/08/01 15:29:13;;;;;;;6.10;4.05;;;;;;;;;;6191267;28;20021;-80
2022/08/01 15:32:14;;;;;;;5.45;4.38;;;;;;;;;;6219417;28;20011;-81
2022/08/01 15:35:14;;;;;;;5.30;3.07;;;;;;;;;;6218111;28;20074;-81
2022/08/01 15:38:14;;;;;;;7.07;3.92;;;;;;;;;;6229144;28;20021;-82
2022/08/01 15:41:15;;;;;;;5.72;3.83;;;;;;;;;;6185753;28;20475;-82
2022/08/01 15:44:19;;;;;;;5.20;3.83;;;;;;;;;;6210586;28;20022;-81
2022/08/01 15:47:20;;;;;;;5.00;3.80;;;;;;;;;;6182696;28;20026;-81
2022/08/01 15:50:20;;;;;;;4.90;3.63;;;;;;;;;;6181880;28;20074;-81
2022/08/01 15:53:20;;;;;;;8.93;3.67;;;;;;;;;;6182299;28;20277;-81
2022/08/01 15:56:21;;;;;;;5.90;3.03;;;;;;;;;;6186670;28;20126;-81
2022/08/01 15:59:21;;;;;;;6.90;3.40;;;;;;;;;;6203487;28;20023;-81
2022/08/01 16:02:21;;;;;;;6.43;4.80;;;;;;;;;;6193117;28;20046;-82
2022/08/01 16:05:22;;;;;;;7.40;4.37;;;;;;;;;;6192167;28;20034;-81
2022/08/01 16:08:22;;;;;;;7.95;4.25;;;;;;;;;;6189706;28;20022;-81
2022/08/01 16:11:25;;;;;;;8.93;4.50;;;;;;;;;;6193364;28;20434;-81
2022/08/01 16:14:25;;;;;;;6.07;4.38;;;;;;;;;;6186889;28;20027;-81
2022/08/01 16:17:26;;;;;;;7.47;4.40;;;;;;;;;;6197720;28;20059;-81
2022/08/01 16:20:26;;;;;;;7.07;4.97;;;;;;;;;;6193853;28;20113;-81
2022/08/01 16:23:27;;;;;;;7.03;4.73;;;;;;;;;;6194854;28;20031;-81
2022/08/01 16:26:27;;;;;;;7.00;4.53;;;;;;;;;;6194868;28;20296;-81
2022/08/01 16:29:29;;;;;;;7.70;4.80;;;;;;;;;;6213112;28;20022;-81
2022/08/01 16:32:29;;;;;;;8.50;5.22;;;;;;;;;;6191050;28;20026;-81
2022/08/01 16:35:30;;;;;;;6.27;4.70;;;;;;;;;;6231150;28;20026;-81
2022/08/01 16:38:30;;;;;;;9.67;5.17;;;;;;;;;;6199049;28;20109;-81
2022/08/01 16:41:30;;;;;;;12.63;5.80;;;;;;;;;;6188376;28;20050;-81
2022/08/01 16:44:30;;;;;;;10.47;4.70;;;;;;;;;;6195770;28;20037;-81
2022/08/01 16:47:30;;;;;;;7.53;5.07;;;;;;;;;;6191073;28;20030;-81
2022/08/01 16:50:31;;;;;;;10.00;5.33;;;;;;;;;;6187212;28;20026;-81
2022/08/01 16:53:31;;;;;;;8.45;5.47;;;;;;;;;;6232295;28;20022;-81
2022/08/01 16:56:31;;;;;;;12.27;6.53;;;;;;;;;;6193746;28;20110;-81
2022/08/01 16:59:31;;;;;;;11.00;6.03;;;;;;;;;;6188135;28;20339;-81
2022/08/01 17:02:32;;;;;;;8.50;5.77;;;;;;;;;;6181809;28;20038;-81
2022/08/01 17:05:32;;;;;;;11.53;6.07;;;;;;;;;;6205602;28;20050;-82
2022/08/01 17:08:32;;;;;;;16.70;7.30;;;;;;;;;;6202489;28;20476;-83
2022/08/01 17:11:32;;;;;;;10.52;6.55;;;;;;;;;;6210980;28;20022;-83
2022/08/01 17:14:33;;;;;;;11.30;7.00;;;;;;;;;;6198952;28;20082;-83
2022/08/01 17:17:33;;;;;;;8.57;6.07;;;;;;;;;;6211661;28;20033;-83
2022/08/01 17:20:33;;;;;;;9.23;6.90;;;;;;;;;;6202102;28;20023;-83
2022/08/01 17:23:34;;;;;;;10.10;6.90;;;;;;;;;;6187804;28;20129;-84
2022/08/01 17:26:34;;;;;;;9.32;6.97;;;;;;;;;;6200857;28;20102;-86
2022/08/01 17:29:35;;;;;;;18.93;9.10;;;;;;;;;;6189878;28;20049;-85
2022/08/01 17:32:35;;;;;;;15.03;10.77;;;;;;;;;;6191938;28;20023;-85
2022/08/01 17:35:35;;;;;;;16.10;12.43;;;;;;;;;;6207320;28;20088;-86
2022/08/01 17:38:35;;;;;;;12.93;8.60;;;;;;;;;;6189209;28;20019;-85
2022/08/01 17:41:36;;;;;;;10.87;9.03;;;;;;;;;;6193287;28;20373;-86
2022/08/01 17:44:36;;;;;;;9.70;7.93;;;;;;;;;;6186737;28;20014;-86
2022/08/01 17:47:37;;;;;;;11.57;8.43;;;;;;;;;;6189583;28;20022;-86
2022/08/01 17:50:37;;;;;;;10.80;9.03;;;;;;;;;;6191639;28;20022;-85
2022/08/01 17:53:37;;;;;;;11.70;7.80;;;;;;;;;;6212479;28;20084;-85
2022/08/01 17:56:38;;;;;;;12.50;8.53;;;;;;;;;;6187236;28;20043;-84
2022/08/01 17:59:38;;;;;;;13.43;9.30;;;;;;;;;;6196275;28;20026;-85
2022/08/01 18:02:38;;;;;;;13.53;8.90;;;;;;;;;;6197656;28;20050;-84